• Join FlightAware (Why Join?)
  • Login
  • US Flag 
09:38PM EDT


 

Airport Tracker/Info


-or-


 

Live Flight TrackerFlight Track Log ✈ UAL33 ✈ 24-Jun-2013 ✈ KORD - KIAH

Flight Track Log - Related Links

Times and Time Zones

All times are in EDT time to prevent confusion due to time zone crossing. See the UAL33 flight status page for this flight to view local times or setup timezone preferences in your user account.

Time Position Orientation Groundspeed Altitude Reporting Facility
EDT Latitude Longitude Course Direction KTS MPH feet Rate Location/Type
10:48PM 41.9700 -87.8850 92° East 16 18  Level FlightAware
10:57PM 41.9610 -87.9420 244° Southwest 184 212 2,300 240 Climbing FlightAware
10:57PM 41.9480 -87.9460 193° South 216 249 2,600 1,680 Climbing FlightAware
10:58PM 41.9320 -87.9450 177° South 245 282 3,100 2,400 Climbing FlightAware
10:58PM 41.8970 -87.9370 170° South 271 312 4,400 1,980 Climbing FlightAware
10:58PM 41.8610 -87.9290 171° South 276 318 5,000 600 Climbing FlightAware
10:59PM 41.8260 -87.9210 170° South 276 318 5,000 420 Level FlightAware
10:59PM 41.7910 -87.9140 172° South 272 313 5,400 2,220 Climbing FlightAware
11:00PM 41.7590 -87.9190 187° South 260 299 7,100 3,660 Climbing FlightAware
11:00PM 41.7230 -87.9300 193° South 276 318 8,800 3,480 Climbing FlightAware
11:01PM 41.7060 -87.9360 195° South 284 327 9,500 3,360 Climbing FlightAware
11:01PM 41.6530 -87.9520 193° South 297 342 11,800 3,600 Climbing FlightAware
11:02PM 41.5930 -87.9720 194° South 313 360 14,600 3,300 Climbing FlightAware
11:03PM 41.5330 -87.9990 199° South 336 387 16,600 2,940 Climbing FlightAware
11:03PM 41.4740 -88.0360 205° Southwest 359 413 18,600 3,180 Climbing FlightAware
11:04PM 41.4090 -88.0760 205° Southwest 362 417 21,100 3,060 Climbing FlightAware
11:05PM 41.3390 -88.1180 204° Southwest 365 420 23,100 2,520 Climbing FlightAware
11:05PM 41.2770 -88.1560 205° Southwest 380 437 24,700 2,160 Climbing FlightAware
11:06PM 41.2040 -88.2010 205° Southwest 402 463 26,200 2,160 Climbing FlightAware
11:07PM 41.1400 -88.2400 205° Southwest 411 473 27,700 2,220 Climbing FlightAware
11:08PM 41.0640 -88.2860 205° Southwest 420 483 29,300 2,340 Climbing FlightAware
11:08PM 40.9850 -88.3340 205° Southwest 422 486 31,200 2,280 Climbing FlightAware
11:09PM 40.9210 -88.3720 204° Southwest 427 491 32,400 1,920 Climbing FlightAware
11:10PM 40.8390 -88.4220 205° Southwest 436 502 33,800 2,040 Climbing FlightAware
11:10PM 40.7630 -88.4670 204° Southwest 433 498 35,400 1,920 Climbing FlightAware
11:11PM 40.6890 -88.5120 205° Southwest 438 504 36,500 1,500 Climbing FlightAware
11:12PM 40.6030 -88.5630 204° Southwest 439 505 37,600 1,260 Climbing FlightAware
11:12PM 40.5300 -88.6100 206° Southwest 449 517 38,300 1,260 Climbing FlightAware
11:13PM 40.4510 -88.6640 207° Southwest 445 512 39,400 1,200 Climbing FlightAware
11:14PM 40.3770 -88.7130 207° Southwest 444 511 40,000 420 Climbing FlightAware
11:15PM 40.2950 -88.7670 207° Southwest 445 512 40,000  Level FlightAware
11:15PM 40.2220 -88.8160 207° Southwest 444 511 40,000  Level FlightAware
11:16PM 40.1430 -88.8670 206° Southwest 444 511 40,000  Level FlightAware
11:17PM 40.0650 -88.9190 207° Southwest 445 512 40,000  Level FlightAware
11:17PM 39.9910 -88.9670 206° Southwest 448 516 40,000  Level FlightAware
11:18PM 39.9110 -89.0200 207° Southwest 448 516 40,000  Level FlightAware
11:19PM 39.7870 -89.1010 207° Southwest 448 516 40,000  Level FlightAware
11:20PM 39.7020 -89.1560 206° Southwest 449 517 40,000  Level FlightAware
11:21PM 39.6300 -89.2030 207° Southwest 449 517 40,000  Level FlightAware
11:21PM 39.5470 -89.2560 206° Southwest 450 518 40,000  Level FlightAware
11:22PM 39.4690 -89.3070 207° Southwest 450 518 40,000  Level FlightAware
11:23PM 39.3940 -89.3550 206° Southwest 452 520 40,000  Level FlightAware
11:23PM 39.3140 -89.4070 207° Southwest 450 518 40,000  Level FlightAware
11:24PM 39.2320 -89.4590 206° Southwest 451 519 40,000  Level FlightAware
11:25PM 39.1540 -89.5090 206° Southwest 452 520 40,000  Level FlightAware
11:26PM 39.0790 -89.5570 206° Southwest 451 519 40,000  Level FlightAware
11:26PM 39.0100 -89.6000 206° Southwest 450 518 40,000  Level FlightAware
11:27PM 38.9330 -89.6490 206° Southwest 449 517 40,000  Level FlightAware
11:28PM 38.8510 -89.7020 207° Southwest 447 514 40,000  Level FlightAware
11:28PM 38.7650 -89.7550 206° Southwest 446 513 40,000  Level FlightAware
11:29PM 38.6570 -89.8240 207° Southwest 445 512 40,000  Level FlightAware
11:30PM 38.5820 -89.8700 206° Southwest 446 513 40,000  Level FlightAware
11:31PM 38.4900 -89.9280 206° Southwest 446 513 40,000  Level FlightAware
11:31PM 38.4330 -89.9640 206° Southwest 446 513 40,000  Level FlightAware
11:32PM 38.3570 -90.0110 206° Southwest 446 513 40,000  Level FlightAware
11:33PM 38.2550 -90.0750 206° Southwest 447 514 40,000  Level FlightAware
11:34PM 38.1130 -90.1630 206° Southwest 449 517 40,000  Level FlightAware
11:35PM 38.0130 -90.2230 205° Southwest 450 518 40,000  Level FlightAware
11:36PM 37.9080 -90.2870 206° Southwest 450 518 40,000  Level FlightAware
11:37PM 37.8090 -90.3470 206° Southwest 450 518 40,000  Level FlightAware
11:38PM 37.7510 -90.3810 205° Southwest 450 518 40,000  Level FlightAware
11:38PM 37.6770 -90.4250 205° Southwest 450 518 40,000  Level FlightAware
11:39PM 37.6160 -90.4610 205° Southwest 450 518 40,000  Level FlightAware
11:40PM 37.5390 -90.5060 205° Southwest 450 518 40,000  Level FlightAware
11:40PM 37.4820 -90.5400 205° Southwest 450 518 40,000  Level FlightAware
11:41PM 37.3230 -90.6440 207° Southwest 448 516 40,000  Level FlightAware
11:42PM 37.2500 -90.6880 206° Southwest 445 512 40,000  Level FlightAware
11:43PM 37.1660 -90.7390 206° Southwest 445 512 40,000  Level FlightAware
11:43PM 37.0910 -90.7840 206° Southwest 446 513 40,000  Level FlightAware
11:44PM 37.0110 -90.8320 206° Southwest 445 512 40,000  Level FlightAware
11:44PM 36.9650 -90.8590 205° Southwest 445 512 40,000  Level FlightAware
11:45PM 36.8800 -90.9100 206° Southwest 444 511 40,000  Level FlightAware
11:46PM 36.8010 -90.9570 205° Southwest 444 511 40,000  Level FlightAware
11:47PM 36.7270 -91.0000 205° Southwest 444 511 40,000  Level FlightAware
11:47PM 36.6460 -91.0490 206° Southwest 445 512 40,000  Level FlightAware
11:48PM 36.5670 -91.0950 205° Southwest 445 512 40,000  Level FlightAware
11:49PM 36.4940 -91.1380 205° Southwest 446 513 40,000  Level FlightAware
11:49PM 36.4180 -91.1830 205° Southwest 448 516 40,000  Level FlightAware
11:50PM 36.3400 -91.2290 205° Southwest 449 517 40,000  Level FlightAware
11:51PM 36.2570 -91.2770 205° Southwest 451 519 40,000  Level FlightAware
11:52PM 36.1530 -91.3380 205° Southwest 452 520 40,000  Level FlightAware
11:52PM 36.0720 -91.3850 205° Southwest 452 520 40,000  Level FlightAware
11:53PM 35.9870 -91.4340 205° Southwest 451 519 40,000  Level FlightAware
11:54PM 35.9120 -91.4780 205° Southwest 449 517 40,000  Level FlightAware
11:54PM 35.8330 -91.5240 205° Southwest 450 518 40,000  Level FlightAware
11:55PM 35.7550 -91.5690 205° Southwest 449 517 40,000  Level FlightAware
11:56PM 35.6740 -91.6150 205° Southwest 448 516 40,000  Level FlightAware
11:57PM 35.6080 -91.6510 204° Southwest 448 516 40,000  Level FlightAware
11:57PM 35.5060 -91.6730 190° South 455 524 40,000  Level FlightAware
11:58PM 35.4070 -91.7010 193° South 456 525 40,000  Level FlightAware
11:59PM 35.3230 -91.7250 193° South 456 525 40,000  Level FlightAware
12:00AM 35.2600 -91.7430 193° South 456 525 40,000  Level FlightAware
12:00AM 35.1790 -91.7650 193° South 456 525 40,000  Level FlightAware
12:01AM 35.1150 -91.7840 194° South 456 525 40,000  Level FlightAware
12:02AM 35.0310 -91.8070 193° South 456 525 40,000  Level FlightAware
12:02AM 34.9680 -91.8250 193° South 456 525 40,000  Level FlightAware
12:03AM 34.8840 -91.8490 193° South 456 525 40,000  Level FlightAware
12:04AM 34.8210 -91.8660 192° South 456 525 40,000  Level FlightAware
12:05AM 34.7360 -91.8900 193° South 456 525 40,000  Level FlightAware
12:05AM 34.6730 -91.9080 193° South 456 525 40,000  Level FlightAware
12:06AM 34.5870 -91.9320 193° South 456 525 40,000  Level FlightAware
12:07AM 34.5240 -91.9500 193° South 456 525 40,000  Level FlightAware
12:08AM 34.4180 -91.9790 193° South 456 525 40,000  Level FlightAware
12:09AM 34.0811 -92.0825 193° South 465 535 40,000  Level Fort Worth Center
12:10AM 33.9533 -92.1206 194° South 460 529 40,000  Level Fort Worth Center
12:11AM 33.8253 -92.1533 192° South 471 542 40,000  Level Fort Worth Center
12:17AM 33.0620 -92.4050 192° South 461 531 40,000  Level FlightAware
12:17AM 33.0070 -92.4570 218° Southwest 461 531 40,000  Level FlightAware
12:18AM 32.9410 -92.5180 218° Southwest 461 531 40,000  Level FlightAware
12:19AM 32.8870 -92.5690 218° Southwest 461 531 40,000  Level FlightAware
12:20AM 32.8010 -92.6490 218° Southwest 461 531 40,000  Level FlightAware
12:20AM 32.7480 -92.6980 218° Southwest 461 531 40,000  Level FlightAware
12:21AM 32.6790 -92.7610 218° Southwest 461 531 40,000  Level FlightAware
12:22AM 32.6280 -92.8090 218° Southwest 461 531 40,000  Level FlightAware
12:23AM 32.5740 -92.8590 218° Southwest 461 531 40,000  Level FlightAware
12:23AM 32.5050 -92.9230 218° Southwest 461 531 40,000  Level FlightAware
12:24AM 32.4490 -92.9740 218° Southwest 461 531 40,000  Level FlightAware
12:25AM 32.3840 -93.0350 218° Southwest 461 531 40,000  Level FlightAware
12:25AM 32.3290 -93.0850 218° Southwest 461 531 40,000  Level FlightAware
12:26AM 32.2610 -93.1490 219° Southwest 461 531 40,000  Level FlightAware
12:27AM 32.2110 -93.1950 218° Southwest 461 531 40,000  Level FlightAware
12:27AM 31.9801 -93.3365 207° Southwest 462 532 40,000  Level FlightAware ADS-B
12:28AM 31.8912 -93.4138 216° Southwest 464 534 40,000  Level FlightAware ADS-B
12:29AM 31.8401 -93.4610 218° Southwest 466 536 40,000 -360 Level FlightAware ADS-B
12:29AM 31.7779 -93.5181 218° Southwest 467 537 39,600 -1,080 Descending FlightAware ADS-B
12:30AM 31.7263 -93.5653 218° Southwest 462 532 38,800 -1,800 Descending FlightAware ADS-B
12:30AM 31.6745 -93.6132 218° Southwest 460 529 37,800 -2,280 Descending FlightAware ADS-B
12:31AM 31.6242 -93.6598 218° Southwest 463 533 36,500 -2,700 Descending FlightAware ADS-B
12:31AM 31.5726 -93.7072 218° Southwest 470 541 35,100 -2,880 Descending FlightAware ADS-B
12:32AM 31.5205 -93.7546 218° Southwest 477 549 33,600 -2,280 Descending FlightAware ADS-B
12:32AM 31.4669 -93.8031 218° Southwest 468 539 32,800 -2,100 Descending FlightAware ADS-B
12:33AM 31.4163 -93.8492 218° Southwest 459 528 31,500 -2,640 Descending FlightAware ADS-B
12:33AM 31.3649 -93.8961 218° Southwest 446 513 30,100 -2,580 Descending FlightAware ADS-B
12:34AM 31.3323 -93.9250 217° Southwest 439 505 29,300 -2,760 Descending FlightAware ADS-B
12:34AM 31.2776 -93.9696 215° Southwest 430 495 27,700 -3,000 Descending FlightAware ADS-B
12:35AM 31.2270 -94.0105 215° Southwest 432 497 26,100 -2,460 Descending FlightAware ADS-B
12:35AM 31.1733 -94.0538 215° Southwest 429 494 25,100 -1,920 Descending FlightAware ADS-B
12:36AM 31.1242 -94.0930 214° Southwest 424 488 24,100 -1,920 Descending FlightAware ADS-B
12:36AM 31.0758 -94.1317 214° Southwest 417 480 23,200 -1,800 Descending FlightAware ADS-B
12:37AM 31.0272 -94.1704 214° Southwest 411 473 22,300 -1,800 Descending FlightAware ADS-B
12:37AM 30.9799 -94.2081 214° Southwest 405 466 21,400 -1,800 Descending FlightAware ADS-B
12:38AM 30.9332 -94.2454 214° Southwest 400 460 20,500 -1,800 Descending FlightAware ADS-B
12:38AM 30.8874 -94.2818 214° Southwest 394 453 19,600 -1,740 Descending FlightAware ADS-B
12:39AM 30.8424 -94.3177 214° Southwest 388 447 18,800 -1,740 Descending FlightAware ADS-B
12:39AM 30.7983 -94.3527 214° Southwest 382 440 17,900 -1,800 Descending FlightAware ADS-B
12:40AM 30.7545 -94.3873 214° Southwest 376 433 17,000 -1,800 Descending FlightAware ADS-B
12:40AM 30.7108 -94.4220 214° Southwest 371 427 16,100 -1,800 Descending FlightAware ADS-B
12:41AM 30.6639 -94.4588 214° Southwest 370 426 15,100 -1,860 Descending FlightAware ADS-B
12:41AM 30.6208 -94.4902 212° Southwest 361 415 14,200 -1,740 Descending FlightAware ADS-B
12:42AM 30.5744 -94.5209 210° Southwest 352 405 13,300 -1,620 Descending FlightAware ADS-B
12:42AM 30.5316 -94.5495 210° Southwest 339 390 12,500 -2,040 Descending FlightAware ADS-B
12:43AM 30.4917 -94.5760 210° Southwest 319 367 11,300 -1,800 Descending FlightAware ADS-B
12:43AM 30.4555 -94.6001 210° Southwest 284 327 10,700 -1,140 Descending FlightAware ADS-B
12:44AM 30.4048 -94.6337 210° Southwest 276 318 9,900 -1,020 Descending FlightAware ADS-B
12:44AM 30.3875 -94.6451 210° Southwest 273 314 9,700 -1,140 Descending FlightAware ADS-B
12:45AM 30.3686 -94.6577 210° Southwest 270 311 9,300 -1,140 Descending FlightAware ADS-B
12:45AM 30.3519 -94.6687 210° Southwest 269 310 9,100 -1,080 Descending FlightAware ADS-B
12:45AM 30.3192 -94.6903 210° Southwest 266 306 8,500 -1,080 Descending FlightAware ADS-B
12:46AM 30.3030 -94.7011 210° Southwest 264 304 8,300 -1,020 Descending FlightAware ADS-B
12:46AM 30.2871 -94.7116 210° Southwest 264 304 8,000 -1,020 Descending FlightAware ADS-B
12:46AM 30.2708 -94.7223 210° Southwest 262 302 7,800 -1,080 Descending FlightAware ADS-B
12:47AM 30.2383 -94.7438 210° Southwest 262 302 7,200 -1,080 Descending FlightAware ADS-B
12:47AM 30.2226 -94.7542 210° Southwest 261 300 7,000 -600 Descending FlightAware ADS-B
12:47AM 30.2066 -94.7647 210° Southwest 260 299 6,900 -420 Descending FlightAware ADS-B
12:47AM 30.1907 -94.7752 210° Southwest 259 298 6,800 -600 Descending FlightAware ADS-B
12:48AM 30.1750 -94.7856 210° Southwest 259 298 6,600 -600 Descending FlightAware ADS-B
12:48AM 30.1594 -94.7959 210° Southwest 259 298 6,500 -420 Descending FlightAware ADS-B
12:48AM 30.1434 -94.8065 210° Southwest 257 296 6,400 -660 Descending FlightAware ADS-B
12:49AM 30.0980 -94.8364 210° Southwest 254 292 5,900 -840 Descending FlightAware ADS-B
12:49AM 30.0824 -94.8466 210° Southwest 253 291 5,600 -1,080 Descending FlightAware ADS-B
12:50AM 30.0519 -94.8667 210° Southwest 251 289 5,100 -1,020 Descending FlightAware ADS-B
12:50AM 30.0214 -94.8867 210° Southwest 249 287 4,600 -1,020 Descending FlightAware ADS-B
12:51AM 29.9916 -94.9075 213° Southwest 247 284 4,100 -1,080 Descending FlightAware ADS-B
12:51AM 29.9886 -94.9111 226° Southwest 248 285 4,000 -780 Descending FlightAware ADS-B
12:51AM 29.9857 -94.9152 231° Southwest 249 287 4,000  Level FlightAware ADS-B
12:51AM 29.9838 -94.9186 237° Southwest 250 288 4,000 -1,020 Level FlightAware ADS-B
12:51AM 29.9821 -94.9222 241° Southwest 252 290 3,900 -900 Descending FlightAware ADS-B
12:51AM 29.9801 -94.9276 247° West 253 291 3,900  Level FlightAware ADS-B
12:51AM 29.9791 -94.9312 252° West 255 293 3,900  Level FlightAware ADS-B
12:51AM 29.9773 -94.9430 260° West 256 295 3,900 -540 Level FlightAware ADS-B
12:51AM 29.9772 -94.9471 268° West 256 295 3,800 -1,920 Descending FlightAware ADS-B
12:51AM 29.9774 -94.9645 271° West 258 297 3,400 -2,100 Descending FlightAware ADS-B
12:52AM 29.9773 -94.9787 270° West 255 293 3,000 -1,860 Descending FlightAware ADS-B
12:52AM 29.9774 -94.9967 270° West 250 288 2,700 -1,080 Descending FlightAware ADS-B
12:52AM 29.9775 -95.0165 270° West 244 281 2,500 -840 Descending FlightAware ADS-B